createdAt,value
2023-05-03T00:00:26.566Z,100162.44
2023-05-03T00:02:54.139Z,100165.22
2023-05-03T00:05:20.871Z,100165.84
2023-05-03T00:10:43.017Z,100164.81
2023-05-03T00:15:44.818Z,100155.41
2023-05-03T00:18:11.568Z,100151.94
2023-05-03T00:31:25.745Z,100149.66
2023-05-03T00:33:52.350Z,100149.91
2023-05-03T00:36:18.870Z,100150.66
2023-05-03T00:38:45.451Z,100153.41
2023-05-03T00:41:13.179Z,100153.84
2023-05-03T00:43:44.960Z,100158.56
2023-05-03T00:46:17.204Z,100158.94
2023-05-03T00:48:46.638Z,100158.59
2023-05-03T00:51:15.030Z,100169.81
2023-05-03T00:54:19.190Z,100169.94
2023-05-03T00:57:16.884Z,100174.22
2023-05-03T00:59:43.592Z,100171.91
2023-05-03T01:02:10.610Z,100180.38
2023-05-03T01:04:38.276Z,100182.78
2023-05-03T01:07:26.382Z,100185.44
2023-05-03T01:10:10.786Z,100190.31
2023-05-03T01:15:50.083Z,100191.53
2023-05-03T01:18:22.134Z,100197.75
2023-05-03T01:20:50.674Z,100192.19
2023-05-03T01:27:05.331Z,100195.06
2023-05-03T01:29:31.932Z,100193.69
2023-05-03T01:32:04.538Z,100192.34
2023-05-03T01:34:48.544Z,100191.50
2023-05-03T01:37:15.204Z,100199.87
2023-05-03T01:39:56.220Z,100190.19
2023-05-03T01:42:30.770Z,100193.13
2023-05-03T01:44:58.732Z,100183.31
2023-05-03T01:47:26.785Z,100186.25
2023-05-03T01:50:01.778Z,100178.72
2023-05-03T01:52:52.579Z,100193.00
2023-05-03T01:55:43.072Z,100183.84
2023-05-03T01:58:15.076Z,100187.84
2023-05-03T02:00:41.797Z,100182.63
2023-05-03T02:03:08.865Z,100185.06
2023-05-03T02:05:35.507Z,100186.09
2023-05-03T02:08:02.105Z,100172.06
2023-05-03T02:10:28.757Z,100169.31
2023-05-03T02:12:55.344Z,100173.38
2023-05-03T02:15:21.897Z,100175.38
2023-05-03T02:17:49.647Z,100173.84
2023-05-03T02:20:16.609Z,100168.94
2023-05-03T02:22:43.238Z,100170.75
2023-05-03T02:25:09.849Z,100171.41
2023-05-03T02:27:56.442Z,100175.03
2023-05-03T02:30:47.535Z,100171.91
2023-05-03T02:33:19.596Z,100179.03
2023-05-03T02:35:46.462Z,100166.53
2023-05-03T02:38:13.045Z,100161.94
2023-05-03T02:40:39.691Z,100160.62
2023-05-03T02:43:12.204Z,100158.84
2023-05-03T02:45:38.752Z,100152.25
2023-05-03T02:48:06.044Z,100154.06
2023-05-03T02:50:32.708Z,100148.38
2023-05-03T02:52:59.285Z,100151.69
2023-05-03T02:55:25.964Z,100154.44
2023-05-03T02:57:52.549Z,100150.13
2023-05-03T03:00:19.624Z,100147.28
2023-05-03T03:02:46.522Z,100153.88
2023-05-03T03:05:13.413Z,100152.31
2023-05-03T03:08:07.788Z,100148.34
2023-05-03T03:10:59.364Z,100160.00
2023-05-03T03:13:31.841Z,100150.00
2023-05-03T03:15:58.518Z,100156.13
2023-05-03T03:18:25.100Z,100159.06
2023-05-03T03:20:51.756Z,100160.06
2023-05-03T03:23:18.341Z,100155.78
2023-05-03T03:25:44.937Z,100150.56
2023-05-03T03:28:11.707Z,100146.84
2023-05-03T03:30:38.299Z,100149.25
2023-05-03T03:33:04.886Z,100154.88
2023-05-03T03:35:32.103Z,100155.37
2023-05-03T03:38:23.904Z,100157.06
2023-05-03T03:41:38.095Z,100161.63
2023-05-03T03:44:04.956Z,100161.06
2023-05-03T03:46:32.648Z,100165.34
2023-05-03T03:48:59.470Z,100165.34
2023-05-03T03:51:26.992Z,100174.78
2023-05-03T03:53:55.554Z,100170.91
2023-05-03T03:59:03.760Z,100173.59
2023-05-03T04:01:30.606Z,100175.06
2023-05-03T04:03:57.384Z,100180.66
2023-05-03T04:06:24.082Z,100176.00
2023-05-03T04:08:50.656Z,100176.88
2023-05-03T04:11:32.333Z,100180.47
2023-05-03T04:14:14.026Z,100178.22
2023-05-03T04:16:59.165Z,100186.84
2023-05-03T04:19:26.460Z,100183.09
2023-05-03T04:21:53.206Z,100185.72
2023-05-03T04:24:19.791Z,100187.38
2023-05-03T04:26:46.335Z,100186.28
2023-05-03T04:29:12.990Z,100196.81
2023-05-03T04:34:15.975Z,100207.69
2023-05-03T04:36:42.929Z,100198.88
2023-05-03T04:39:11.657Z,100203.59
2023-05-03T04:41:38.547Z,100211.00
2023-05-03T04:44:05.958Z,100211.34
2023-05-03T04:46:44.469Z,100213.44
2023-05-03T04:49:35.205Z,100216.63
2023-05-03T04:52:06.828Z,100218.12
2023-05-03T04:54:33.336Z,100213.81
2023-05-03T04:56:59.910Z,100221.31
2023-05-03T04:59:26.537Z,100223.19
2023-05-03T05:01:58.343Z,100225.12
2023-05-03T05:04:25.604Z,100223.63
2023-05-03T05:06:54.324Z,100229.50
2023-05-03T05:09:26.127Z,100222.84
2023-05-03T05:11:53.953Z,100221.28
2023-05-03T05:14:23.025Z,100230.03
2023-05-03T05:16:49.699Z,100229.25
2023-05-03T05:19:16.608Z,100222.97
2023-05-03T05:21:43.317Z,100229.97
2023-05-03T05:24:10.758Z,100224.09
2023-05-03T05:26:37.357Z,100225.91
2023-05-03T05:29:03.962Z,100229.81
2023-05-03T05:31:30.719Z,100222.88
2023-05-03T05:33:57.591Z,100227.91
2023-05-03T05:36:24.161Z,100237.37
2023-05-03T05:38:50.745Z,100230.66
2023-05-03T05:41:17.398Z,100237.72
2023-05-03T05:43:45.045Z,100240.47
2023-05-03T05:46:11.799Z,100246.00
2023-05-03T05:48:39.291Z,100242.03
2023-05-03T05:51:06.184Z,100245.50
2023-05-03T05:53:32.719Z,100256.06
2023-05-03T05:55:59.322Z,100262.81
2023-05-03T05:58:25.944Z,100269.62
2023-05-03T06:00:52.875Z,100275.38
2023-05-03T06:03:19.470Z,100281.91
2023-05-03T06:05:46.360Z,100286.16
2023-05-03T06:08:13.060Z,100290.41
2023-05-03T06:10:40.064Z,100297.87
2023-05-03T06:13:06.621Z,100297.53
2023-05-03T06:15:53.815Z,100307.16
2023-05-03T06:18:20.411Z,100303.44
2023-05-03T06:20:53.180Z,100303.75
2023-05-03T06:23:19.705Z,100303.28
2023-05-03T06:25:55.242Z,100311.25
2023-05-03T06:28:52.813Z,100307.84
2023-05-03T06:31:34.595Z,100310.28
2023-05-03T06:34:01.476Z,100318.37
2023-05-03T06:36:30.537Z,100316.56
2023-05-03T06:38:57.138Z,100319.34
2023-05-03T06:41:23.804Z,100325.84
2023-05-03T06:43:50.334Z,100324.94
2023-05-03T06:46:19.634Z,100324.09
2023-05-03T06:48:46.895Z,100331.28
2023-05-03T06:51:13.529Z,100324.63
2023-05-03T06:53:40.073Z,100324.91
2023-05-03T06:56:07.049Z,100319.84
2023-05-03T06:58:33.612Z,100321.31
2023-05-03T07:06:24.229Z,100319.09
2023-05-03T07:53:12.540Z,100322.31
2023-05-03T07:55:39.077Z,100322.81
2023-05-03T07:58:05.918Z,100325.03
2023-05-03T08:00:32.505Z,100334.53
2023-05-03T08:02:59.198Z,100331.09
2023-05-03T08:05:36.678Z,100331.16
2023-05-03T08:08:30.422Z,100322.69
2023-05-03T08:11:07.903Z,100328.91
2023-05-03T08:13:34.648Z,100328.69
2023-05-03T08:18:36.596Z,100338.03
2023-05-03T08:21:03.230Z,100334.34
2023-05-03T08:23:29.769Z,100339.72
2023-05-03T08:25:56.757Z,100327.50
2023-05-03T08:28:23.440Z,100337.19
2023-05-03T08:30:50.174Z,100332.66
2023-05-03T08:33:16.774Z,100340.66
2023-05-03T08:35:43.378Z,100336.38
2023-05-03T08:38:09.937Z,100337.31
2023-05-03T08:41:02.729Z,100342.59
2023-05-03T08:46:39.696Z,100341.84
2023-05-03T08:49:09.253Z,100342.78
2023-05-03T08:51:44.502Z,100344.50
2023-05-03T08:54:12.445Z,100347.75
2023-05-03T08:56:43.951Z,100353.06
2023-05-03T08:59:11.640Z,100344.97
2023-05-03T09:01:40.121Z,100347.28
2023-05-03T09:04:08.456Z,100341.00
2023-05-03T09:06:36.766Z,100347.38
2023-05-03T09:09:08.797Z,100345.31
2023-05-03T09:11:37.985Z,100353.75
2023-05-03T09:14:17.093Z,100351.22
2023-05-03T09:16:45.653Z,100337.56
2023-05-03T09:19:13.883Z,100340.44
2023-05-03T09:21:42.256Z,100339.66
2023-05-03T09:24:23.426Z,100340.00
2023-05-03T09:26:51.707Z,100346.25
2023-05-03T09:29:29.414Z,100340.66
2023-05-03T09:32:05.442Z,100340.53
2023-05-03T09:34:32.907Z,100341.59
2023-05-03T09:36:59.593Z,100338.44
2023-05-03T09:39:26.502Z,100338.91
2023-05-03T09:41:53.192Z,100343.41
2023-05-03T09:44:20.259Z,100341.78
2023-05-03T09:47:06.353Z,100337.69
2023-05-03T09:49:33.554Z,100342.41
2023-05-03T09:52:01.667Z,100348.19
2023-05-03T09:54:29.017Z,100341.63
2023-05-03T09:56:55.841Z,100339.03
2023-05-03T09:59:22.430Z,100342.91
2023-05-03T10:02:32.625Z,100344.22
2023-05-03T10:04:59.642Z,100343.09
2023-05-03T10:07:28.900Z,100338.91
2023-05-03T10:09:59.225Z,100338.97
2023-05-03T10:12:27.172Z,100343.91
2023-05-03T10:14:57.028Z,100335.94
2023-05-03T10:17:43.575Z,100340.75
2023-05-03T10:21:20.487Z,100343.06
2023-05-03T10:24:09.515Z,100331.63
2023-05-03T10:26:36.053Z,100338.81
2023-05-03T10:31:51.643Z,100327.78
2023-05-03T10:34:25.870Z,100326.31
2023-05-03T10:36:55.781Z,100318.63
2023-05-03T10:39:23.009Z,100323.44
2023-05-03T10:42:01.869Z,100320.06
2023-05-03T10:44:51.462Z,100318.13
2023-05-03T10:51:33.040Z,100317.06
2023-05-03T10:53:59.858Z,100326.09
2023-05-03T10:56:26.443Z,100320.19
2023-05-03T10:58:56.916Z,100323.31
2023-05-03T11:01:26.958Z,100310.94
2023-05-03T11:03:56.553Z,100321.69
2023-05-03T11:06:34.472Z,100314.81
2023-05-03T11:09:02.515Z,100322.37
2023-05-03T11:11:29.146Z,100324.25
2023-05-03T11:13:55.786Z,100314.50
2023-05-03T11:16:22.631Z,100316.47
2023-05-03T11:18:50.640Z,100318.91
2023-05-03T11:21:17.517Z,100321.87
2023-05-03T11:23:44.837Z,100319.97
2023-05-03T11:26:12.066Z,100317.38
2023-05-03T11:28:42.586Z,100317.97
2023-05-03T11:31:10.267Z,100316.25
2023-05-03T11:33:38.838Z,100318.66
2023-05-03T11:36:08.239Z,100321.44
2023-05-03T11:38:36.565Z,100309.31
2023-05-03T11:41:14.288Z,100314.63
2023-05-03T11:43:45.439Z,100313.59
2023-05-03T11:46:14.387Z,100313.91
2023-05-03T11:49:01.848Z,100313.91
2023-05-03T11:51:28.493Z,100319.41
2023-05-03T11:53:56.773Z,100315.84
2023-05-03T11:56:24.222Z,100314.00
2023-05-03T11:58:57.056Z,100316.00
2023-05-03T12:02:17.998Z,100313.84
2023-05-03T12:05:04.241Z,100304.59
2023-05-03T12:07:31.448Z,100316.16
2023-05-03T12:10:10.158Z,100304.13
2023-05-03T12:12:52.945Z,100304.38
2023-05-03T12:15:30.022Z,100303.72
2023-05-03T12:18:00.280Z,100306.00
2023-05-03T12:23:04.300Z,100312.53
2023-05-03T12:25:33.979Z,100302.22
2023-05-03T12:30:34.025Z,100298.88
2023-05-03T12:33:04.181Z,100303.72
2023-05-03T12:35:58.906Z,100293.53
2023-05-03T12:39:10.108Z,100291.13
2023-05-03T13:09:21.717Z,100271.91
2023-05-03T13:11:54.969Z,100269.81
2023-05-03T13:14:21.910Z,100268.66
2023-05-03T13:16:49.376Z,100269.53
2023-05-03T14:32:24.606Z,100227.91
2023-05-03T14:37:39.326Z,100236.47
2023-05-03T14:40:09.987Z,100232.41
2023-05-03T14:51:35.134Z,100237.59
2023-05-03T15:22:06.549Z,100245.22
2023-05-03T15:24:33.111Z,100244.03
2023-05-03T15:27:02.938Z,100242.09
2023-05-03T15:29:29.561Z,100249.06
2023-05-03T15:31:56.574Z,100246.56
2023-05-03T15:34:23.176Z,100243.50
2023-05-03T15:36:49.757Z,100250.09
2023-05-03T15:39:16.338Z,100246.03
2023-05-03T15:41:45.460Z,100253.44
2023-05-03T15:44:14.787Z,100246.59
2023-05-03T15:46:42.928Z,100249.56
2023-05-03T15:49:10.124Z,100246.12
2023-05-03T15:51:37.062Z,100246.94
2023-05-03T15:54:03.997Z,100250.50
2023-05-03T15:56:31.249Z,100253.31
2023-05-03T15:58:57.870Z,100249.03
2023-05-03T16:01:24.792Z,100247.75
2023-05-03T16:03:51.443Z,100246.41
2023-05-03T16:06:18.265Z,100255.53
2023-05-03T16:08:45.660Z,100253.19
2023-05-03T16:11:12.838Z,100252.94
2023-05-03T16:13:39.499Z,100253.97
2023-05-03T16:16:06.704Z,100258.41
2023-05-03T16:18:33.483Z,100259.94
2023-05-03T16:21:06.642Z,100262.59
2023-05-03T16:23:33.433Z,100260.53
2023-05-03T16:26:00.072Z,100248.72
2023-05-03T16:28:26.701Z,100256.78
2023-05-03T16:30:53.302Z,100253.87
2023-05-03T16:33:20.367Z,100257.44
2023-05-03T16:35:46.972Z,100249.72
2023-05-03T16:38:13.559Z,100254.66
2023-05-03T16:40:40.571Z,100260.84
2023-05-03T16:43:07.528Z,100247.06
2023-05-03T16:45:34.173Z,100252.81
2023-05-03T16:48:03.968Z,100248.72
2023-05-03T16:50:32.289Z,100254.94
2023-05-03T16:52:58.874Z,100253.69
2023-05-03T16:55:25.430Z,100253.97
2023-05-03T16:57:51.999Z,100254.78
2023-05-03T17:00:20.950Z,100255.41
2023-05-03T17:08:08.147Z,100259.31
2023-05-03T17:10:36.635Z,100261.00
2023-05-03T17:13:03.779Z,100256.94
2023-05-03T17:15:32.741Z,100268.00
2023-05-03T17:20:35.182Z,100260.72
2023-05-03T17:23:01.904Z,100262.34
2023-05-03T17:28:03.896Z,100264.81
2023-05-03T17:30:30.616Z,100268.16
2023-05-03T17:32:58.190Z,100263.34
2023-05-03T17:35:24.833Z,100273.50
2023-05-03T17:40:53.687Z,100272.84
2023-05-03T17:43:20.522Z,100281.84
2023-05-03T17:45:49.656Z,100274.63
2023-05-03T17:53:58.192Z,100288.50
2023-05-03T17:59:13.055Z,100289.00
2023-05-03T18:01:39.662Z,100292.28
2023-05-03T18:06:41.757Z,100296.69
2023-05-03T18:09:08.533Z,100295.06
2023-05-03T18:11:35.123Z,100302.41
2023-05-03T18:14:01.678Z,100302.09
2023-05-03T18:16:28.796Z,100310.28
2023-05-03T18:18:55.495Z,100314.75
2023-05-03T18:21:23.523Z,100317.38
2023-05-03T18:23:50.077Z,100316.41
2023-05-03T18:26:17.243Z,100319.00
2023-05-03T18:28:43.878Z,100317.41
2023-05-03T18:31:11.584Z,100317.09
2023-05-03T18:33:40.099Z,100318.59
2023-05-03T18:36:11.732Z,100321.00
2023-05-03T18:38:39.730Z,100325.72
2023-05-03T18:43:46.146Z,100324.28
2023-05-03T18:46:18.423Z,100329.00
2023-05-03T18:51:27.098Z,100335.34
2023-05-03T18:53:54.102Z,100338.28
2023-05-03T18:56:20.682Z,100338.28
2023-05-03T18:58:47.853Z,100334.38
2023-05-03T19:01:14.428Z,100341.50
2023-05-03T19:03:41.275Z,100337.59
2023-05-03T19:06:10.961Z,100341.31
2023-05-03T19:11:33.078Z,100337.59
2023-05-03T19:14:00.988Z,100345.87
2023-05-03T19:16:27.945Z,100343.62
2023-05-03T19:19:13.655Z,100354.00
2023-05-03T19:22:05.471Z,100357.75
2023-05-03T19:24:37.322Z,100353.38
2023-05-03T19:27:04.776Z,100357.94
2023-05-03T19:29:31.513Z,100361.66
2023-05-03T19:31:58.077Z,100367.03
2023-05-03T19:34:24.750Z,100370.94
2023-05-03T19:36:51.385Z,100382.34
2023-05-03T19:39:17.920Z,100385.41
2023-05-03T19:41:44.984Z,100391.09
2023-05-03T19:44:12.186Z,100393.69
2023-05-03T19:46:38.903Z,100401.88
2023-05-03T19:49:05.775Z,100406.56
2023-05-03T19:51:33.118Z,100409.47
2023-05-03T19:54:04.959Z,100412.72
2023-05-03T19:56:31.493Z,100410.78
2023-05-03T19:58:58.305Z,100416.16
2023-05-03T20:01:24.931Z,100418.06
2023-05-03T20:03:53.461Z,100419.50
2023-05-03T20:06:20.528Z,100415.53
2023-05-03T20:08:47.213Z,100420.16
2023-05-03T20:11:13.824Z,100426.16
2023-05-03T20:13:40.368Z,100432.97
2023-05-03T20:16:08.326Z,100433.19
2023-05-03T20:18:35.180Z,100431.88
2023-05-03T20:21:03.795Z,100432.06
2023-05-03T20:23:30.588Z,100430.44
2023-05-03T20:25:57.115Z,100433.37
2023-05-03T20:28:24.057Z,100433.19
2023-05-03T20:30:50.660Z,100436.16
2023-05-03T20:33:17.339Z,100433.84
2023-05-03T20:35:44.273Z,100437.75
2023-05-03T20:41:13.146Z,100438.22
2023-05-03T20:43:39.761Z,100448.47
2023-05-03T20:46:06.504Z,100435.16
2023-05-03T20:48:33.225Z,100439.97
2023-05-03T20:51:00.807Z,100442.34
2023-05-03T20:54:27.984Z,100448.31
2023-05-03T20:57:47.650Z,100448.56
2023-05-03T21:00:17.655Z,100446.91
2023-05-03T21:02:47.144Z,100444.75
2023-05-03T21:25:55.223Z,100439.16
2023-05-03T21:28:23.718Z,100439.97
2023-05-03T21:30:50.316Z,100442.09
2023-05-03T21:33:16.956Z,100449.41
2023-05-03T21:35:43.594Z,100450.00
2023-05-03T21:38:10.260Z,100450.25
2023-05-03T21:40:36.810Z,100449.31
2023-05-03T21:43:21.812Z,100442.56
2023-05-03T21:46:13.196Z,100453.00
2023-05-03T21:48:40.810Z,100446.28
2023-05-03T21:51:07.964Z,100446.69
2023-05-03T21:53:35.528Z,100442.25
2023-05-03T21:56:02.168Z,100442.56
2023-05-03T21:58:29.499Z,100447.44
2023-05-03T22:00:56.047Z,100450.81
2023-05-03T22:03:22.993Z,100447.25
2023-05-03T22:05:51.383Z,100447.09
2023-05-03T22:08:18.602Z,100447.56
2023-05-03T22:10:46.433Z,100445.81
2023-05-03T22:13:49.717Z,100442.56
2023-05-03T22:16:38.049Z,100441.91
2023-05-03T22:19:05.420Z,100443.25
2023-05-03T22:21:31.993Z,100436.41
2023-05-03T22:23:58.575Z,100432.22
2023-05-03T22:26:25.310Z,100433.84
2023-05-03T22:28:52.057Z,100441.91
2023-05-03T22:31:18.711Z,100427.69
2023-05-03T22:33:50.460Z,100435.34
2023-05-03T22:36:17.014Z,100434.34
2023-05-03T22:38:43.644Z,100427.31
2023-05-03T22:41:10.443Z,100422.81
2023-05-03T22:44:01.809Z,100427.91
2023-05-03T22:46:54.194Z,100420.78
2023-05-03T22:49:20.743Z,100425.34
2023-05-03T22:51:47.364Z,100416.53
2023-05-03T22:54:13.908Z,100418.56
2023-05-03T22:56:40.425Z,100423.22
2023-05-03T22:59:07.024Z,100419.97
2023-05-03T23:04:29.101Z,100413.41
2023-05-03T23:06:55.690Z,100420.97
2023-05-03T23:09:22.735Z,100407.94
2023-05-03T23:11:56.597Z,100408.47
2023-05-03T23:14:46.090Z,100414.25
2023-05-03T23:17:31.567Z,100408.88
2023-05-03T23:19:58.329Z,100402.81
2023-05-03T23:22:24.914Z,100405.25
2023-05-03T23:24:51.920Z,100401.25
2023-05-03T23:27:20.779Z,100391.88
2023-05-03T23:29:48.257Z,100398.12
2023-05-03T23:53:15.164Z,100377.03
2023-05-03T23:55:41.939Z,100381.84
2023-05-03T23:58:09.065Z,100373.56
